createdAt,value
2023-05-07T00:01:32.615Z,100969.92
2023-05-07T00:04:03.580Z,100969.44
2023-05-07T00:06:36.740Z,100973.02
2023-05-07T00:09:08.269Z,100969.95
2023-05-07T00:11:39.188Z,100974.86
2023-05-07T00:14:10.468Z,100972.27
2023-05-07T00:16:41.230Z,100973.73
2023-05-07T00:19:11.975Z,100971.84
2023-05-07T00:21:42.800Z,100975.27
2023-05-07T00:24:13.627Z,100975.56
2023-05-07T00:26:44.680Z,100978.81
2023-05-07T00:29:15.494Z,100981.02
2023-05-07T00:31:46.347Z,100985.26
2023-05-07T00:34:25.329Z,100982.12
2023-05-07T00:36:56.132Z,100985.04
2023-05-07T00:39:27.926Z,100992.89
2023-05-07T00:41:59.147Z,100991.36
2023-05-07T00:44:30.821Z,100990.86
2023-05-07T00:47:03.684Z,100995.61
2023-05-07T00:49:40.013Z,100997.09
2023-05-07T00:52:11.777Z,101002.31
2023-05-07T00:54:47.076Z,101002.89
2023-05-07T00:57:18.437Z,101011.83
2023-05-07T00:59:49.546Z,101012.63
2023-05-07T01:02:20.737Z,101017.04
2023-05-07T01:04:51.530Z,101015.69
2023-05-07T01:07:22.966Z,101016.02
2023-05-07T01:09:54.927Z,101014.45
2023-05-07T01:12:28.785Z,101009.34
2023-05-07T01:15:01.360Z,101009.06
2023-05-07T01:17:35.209Z,101013.34
2023-05-07T01:20:09.438Z,101008.26
2023-05-07T01:22:41.540Z,101010.73
2023-05-07T01:25:14.751Z,101009.02
2023-05-07T01:27:48.770Z,101008.05
2023-05-07T01:30:26.082Z,101009.53
2023-05-07T01:33:03.924Z,101010.84
2023-05-07T01:35:39.944Z,101016.15
2023-05-07T01:38:11.574Z,101018.19
2023-05-07T01:40:42.772Z,101016.88
2023-05-07T01:43:14.712Z,101016.08
2023-05-07T01:45:47.135Z,101020.71
2023-05-07T01:48:18.195Z,101025.27
2023-05-07T01:50:49.420Z,101024.39
2023-05-07T01:53:20.927Z,101022.35
2023-05-07T01:55:52.011Z,101017.77
2023-05-07T01:58:25.797Z,101017.55
2023-05-07T02:00:59.247Z,101018.78
2023-05-07T02:03:32.061Z,101013.55
2023-05-07T02:06:09.089Z,101008.77
2023-05-07T02:08:42.405Z,101016.27
2023-05-07T02:11:14.746Z,101011.49
2023-05-07T02:13:45.463Z,101011.48
2023-05-07T02:16:16.907Z,101008.94
2023-05-07T02:18:47.989Z,101013.02
2023-05-07T02:21:19.076Z,101009.06
2023-05-07T02:23:49.815Z,101008.00
2023-05-07T02:26:22.752Z,101008.11
2023-05-07T02:28:54.908Z,101009.44
2023-05-07T02:31:25.932Z,101008.41
2023-05-07T02:33:56.911Z,101009.25
2023-05-07T02:36:28.293Z,101012.27
2023-05-07T02:39:07.338Z,101011.73
2023-05-07T02:41:38.526Z,101013.07
2023-05-07T02:44:10.426Z,101017.96
2023-05-07T02:46:41.524Z,101015.21
2023-05-07T02:49:13.775Z,101015.15
2023-05-07T02:51:44.518Z,101017.68
2023-05-07T02:54:19.708Z,101017.52
2023-05-07T02:56:50.589Z,101020.73
2023-05-07T02:59:21.270Z,101021.44
2023-05-07T03:01:52.110Z,101023.16
2023-05-07T03:04:23.321Z,101026.20
2023-05-07T03:06:54.086Z,101029.56
2023-05-07T03:09:24.961Z,101032.06
2023-05-07T03:11:55.751Z,101035.23
2023-05-07T03:14:26.528Z,101031.11
2023-05-07T03:16:59.988Z,101032.98
2023-05-07T03:19:31.722Z,101036.88
2023-05-07T03:22:02.856Z,101039.96
2023-05-07T03:24:33.670Z,101043.55
2023-05-07T03:27:04.472Z,101046.48
2023-05-07T03:29:35.441Z,101047.23
2023-05-07T03:32:07.022Z,101052.67
2023-05-07T03:34:37.872Z,101055.41
2023-05-07T03:37:08.742Z,101060.88
2023-05-07T03:39:39.439Z,101059.20
2023-05-07T03:42:10.315Z,101065.20
2023-05-07T03:44:41.933Z,101064.51
2023-05-07T03:47:14.331Z,101069.15
2023-05-07T03:49:45.066Z,101071.44
2023-05-07T03:52:16.676Z,101076.04
2023-05-07T03:54:47.438Z,101081.45
2023-05-07T03:57:18.346Z,101080.59
2023-05-07T03:59:49.162Z,101083.98
2023-05-07T04:02:19.882Z,101082.95
2023-05-07T04:04:51.936Z,101080.85
2023-05-07T04:07:23.132Z,101082.50
2023-05-07T04:09:53.969Z,101083.83
2023-05-07T04:12:24.859Z,101092.48
2023-05-07T04:14:56.096Z,101094.73
2023-05-07T04:17:28.010Z,101097.67
2023-05-07T04:19:58.750Z,101095.02
2023-05-07T04:22:29.992Z,101105.25
2023-05-07T04:25:01.608Z,101104.27
2023-05-07T04:27:34.061Z,101107.35
2023-05-07T04:30:05.068Z,101110.92
2023-05-07T04:32:40.226Z,101111.42
2023-05-07T04:35:11.926Z,101113.16
2023-05-07T04:37:43.358Z,101114.05
2023-05-07T04:40:15.417Z,101117.48
2023-05-07T04:42:46.436Z,101119.07
2023-05-07T04:45:17.461Z,101120.62
2023-05-07T04:47:49.126Z,101120.52
2023-05-07T04:50:21.329Z,101124.27
2023-05-07T04:52:52.876Z,101122.81
2023-05-07T04:55:23.706Z,101129.00
2023-05-07T04:57:55.431Z,101128.40
2023-05-07T05:00:27.340Z,101133.88
2023-05-07T05:02:58.586Z,101136.42
2023-05-07T05:05:29.556Z,101134.09
2023-05-07T05:08:00.306Z,101140.40
2023-05-07T05:10:31.298Z,101139.98
2023-05-07T05:13:02.031Z,101145.65
2023-05-07T05:15:34.059Z,101143.45
2023-05-07T05:18:05.480Z,101149.23
2023-05-07T05:20:36.768Z,101145.89
2023-05-07T05:23:07.563Z,101147.55
2023-05-07T05:25:38.409Z,101150.98
2023-05-07T05:28:09.337Z,101156.21
2023-05-07T05:30:41.258Z,101155.69
2023-05-07T05:33:12.240Z,101160.00
2023-05-07T05:35:43.124Z,101159.20
2023-05-07T05:38:15.835Z,101158.41
2023-05-07T05:40:47.166Z,101152.42
2023-05-07T05:43:18.417Z,101156.23
2023-05-07T05:45:49.254Z,101156.80
2023-05-07T05:48:20.770Z,101163.45
2023-05-07T05:50:51.731Z,101168.17
2023-05-07T05:53:22.916Z,101169.65
2023-05-07T05:55:54.092Z,101176.13
2023-05-07T05:58:24.873Z,101172.84
2023-05-07T06:00:59.249Z,101178.77
2023-05-07T06:03:30.163Z,101187.80
2023-05-07T06:06:02.827Z,101192.90
2023-05-07T06:08:34.260Z,101194.41
2023-05-07T06:11:05.335Z,101187.92
2023-05-07T06:13:37.842Z,101190.77
2023-05-07T06:16:09.914Z,101192.73
2023-05-07T06:18:41.165Z,101193.81
2023-05-07T06:21:11.866Z,101194.39
2023-05-07T06:23:43.622Z,101197.94
2023-05-07T06:26:14.927Z,101203.39
2023-05-07T06:28:47.292Z,101209.42
2023-05-07T06:31:22.008Z,101210.89
2023-05-07T06:34:00.173Z,101208.28
2023-05-07T06:36:36.597Z,101206.51
2023-05-07T06:39:14.056Z,101205.47
2023-05-07T06:41:44.738Z,101205.87
2023-05-07T06:44:22.264Z,101212.23
2023-05-07T06:47:03.421Z,101209.08
2023-05-07T06:49:34.321Z,101208.77
2023-05-07T06:52:05.724Z,101210.17
2023-05-07T06:54:36.723Z,101213.83
2023-05-07T06:57:07.506Z,101213.05
2023-05-07T06:59:38.658Z,101213.49
2023-05-07T07:02:09.631Z,101218.89
2023-05-07T07:04:41.282Z,101223.13
2023-05-07T07:07:13.653Z,101219.50
2023-05-07T07:09:45.077Z,101220.33
2023-05-07T07:12:17.690Z,101222.20
2023-05-07T07:14:48.559Z,101223.73
2023-05-07T07:17:19.667Z,101226.43
2023-05-07T07:19:50.598Z,101221.90
2023-05-07T07:22:21.654Z,101227.77
2023-05-07T07:24:52.492Z,101232.60
2023-05-07T07:27:23.441Z,101237.02
2023-05-07T07:29:54.249Z,101240.02
2023-05-07T07:32:25.422Z,101243.27
2023-05-07T07:34:57.479Z,101243.48
2023-05-07T07:37:28.322Z,101242.71
2023-05-07T07:39:59.094Z,101241.77
2023-05-07T07:42:30.297Z,101246.63
2023-05-07T07:45:02.370Z,101247.72
2023-05-07T07:51:54.972Z,101251.32
2023-05-07T07:54:28.027Z,101245.38
2023-05-07T07:57:03.579Z,101252.40
2023-05-07T07:59:37.003Z,101249.73
2023-05-07T08:02:29.291Z,101255.93
2023-05-07T08:07:46.473Z,101257.06
2023-05-07T08:10:23.293Z,101258.92
2023-05-07T08:13:00.496Z,101259.76
2023-05-07T08:15:31.311Z,101266.05
2023-05-07T08:18:02.967Z,101265.73
2023-05-07T08:20:40.834Z,101266.65
2023-05-07T08:23:14.524Z,101271.91
2023-05-07T08:25:45.805Z,101268.67
2023-05-07T08:32:03.507Z,101270.23
2023-05-07T08:34:34.596Z,101280.02
2023-05-07T08:37:06.959Z,101276.52
2023-05-07T08:39:44.854Z,101273.12
2023-05-07T08:42:20.750Z,101274.98
2023-05-07T08:45:03.382Z,101275.88
2023-05-07T08:48:03.418Z,101279.75
2023-05-07T08:50:39.098Z,101281.95
2023-05-07T08:53:11.676Z,101281.11
2023-05-07T08:55:43.235Z,101281.84
2023-05-07T08:58:14.028Z,101285.54
2023-05-07T09:00:49.089Z,101288.89
2023-05-07T09:03:26.901Z,101290.31
2023-05-07T09:05:58.554Z,101290.66
2023-05-07T09:08:34.245Z,101281.22
2023-05-07T09:11:06.346Z,101281.87
2023-05-07T09:13:37.662Z,101287.84
2023-05-07T09:16:23.180Z,101290.96
2023-05-07T09:18:57.340Z,101299.86
2023-05-07T09:21:28.864Z,101298.64
2023-05-07T09:24:03.858Z,101298.42
2023-05-07T09:26:44.956Z,101301.27
2023-05-07T09:29:18.162Z,101304.66
2023-05-07T09:31:54.681Z,101293.02
2023-05-07T09:34:25.666Z,101305.09
2023-05-07T09:37:01.392Z,101307.35
2023-05-07T09:39:42.742Z,101305.65
2023-05-07T09:42:15.974Z,101311.64
2023-05-07T09:44:51.042Z,101310.98
2023-05-07T09:47:31.126Z,101314.04
2023-05-07T09:50:08.822Z,101309.05
2023-05-07T09:52:43.068Z,101322.23
2023-05-07T09:59:30.006Z,101318.14
2023-05-07T10:02:05.031Z,101322.95
2023-05-07T10:04:42.642Z,101327.24
2023-05-07T10:07:14.601Z,101332.38
2023-05-07T10:09:49.173Z,101332.56
2023-05-07T10:12:29.082Z,101330.16
2023-05-07T10:15:00.149Z,101333.13
2023-05-07T10:17:32.044Z,101338.79
2023-05-07T10:20:17.509Z,101338.44
2023-05-07T10:22:51.024Z,101335.66
2023-05-07T10:25:31.667Z,101348.15
2023-05-07T10:28:12.462Z,101345.77
2023-05-07T10:30:58.153Z,101333.81
2023-05-07T10:33:32.085Z,101334.15
2023-05-07T10:36:05.715Z,101350.07
2023-05-07T10:38:37.350Z,101335.13
2023-05-07T10:41:08.335Z,101333.91
2023-05-07T10:43:49.057Z,101335.27
2023-05-07T10:46:37.389Z,101340.35
2023-05-07T10:49:18.573Z,101339.45
2023-05-07T10:52:16.969Z,101350.39
2023-05-07T10:55:28.763Z,101345.74
2023-05-07T11:01:54.032Z,101350.85
2023-05-07T11:04:32.698Z,101347.29
2023-05-07T11:07:35.876Z,101352.67
2023-05-07T11:10:22.617Z,101359.55
2023-05-07T11:13:11.214Z,101359.55
2023-05-07T11:20:51.791Z,101366.45
2023-05-07T11:24:01.614Z,101374.23
2023-05-07T11:26:45.929Z,101366.69
2023-05-07T11:29:23.406Z,101368.56
2023-05-07T11:32:01.507Z,101365.86
2023-05-07T11:34:41.441Z,101370.48
2023-05-07T11:37:13.625Z,101384.54
2023-05-07T11:40:05.095Z,101372.39
2023-05-07T11:42:42.214Z,101370.71
2023-05-07T11:45:14.337Z,101375.67
2023-05-07T11:47:46.393Z,101377.00
2023-05-07T11:50:17.513Z,101370.82
2023-05-07T11:53:00.554Z,101381.74
2023-05-07T11:55:31.344Z,101376.27
2023-05-07T11:58:02.088Z,101375.59
2023-05-07T12:00:32.808Z,101382.65
2023-05-07T12:03:09.605Z,101386.80
2023-05-07T12:05:44.207Z,101370.40
2023-05-07T12:08:17.747Z,101378.84
2023-05-07T12:10:54.768Z,101377.49
2023-05-07T12:13:29.344Z,101384.36
2023-05-07T12:20:48.419Z,101385.95
2023-05-07T12:23:24.857Z,101388.88
2023-05-07T12:25:55.655Z,101394.36
2023-05-07T12:28:26.701Z,101399.82
2023-05-07T12:31:14.242Z,101386.80
2023-05-07T12:33:45.798Z,101385.46
2023-05-07T12:36:17.521Z,101389.58
2023-05-07T12:39:01.742Z,101391.28
2023-05-07T12:42:03.048Z,101398.64
2023-05-07T12:48:31.584Z,101393.84
2023-05-07T12:51:11.560Z,101394.02
2023-05-07T12:58:25.448Z,101397.15
2023-05-07T13:01:02.619Z,101394.59
2023-05-07T13:03:35.665Z,101397.66
2023-05-07T13:06:17.760Z,101405.20
2023-05-07T13:08:50.828Z,101408.13
2023-05-07T13:11:22.213Z,101395.44
2023-05-07T13:13:53.608Z,101391.33
2023-05-07T13:16:27.374Z,101387.42
2023-05-07T13:19:00.635Z,101392.91
2023-05-07T13:21:32.971Z,101411.10
2023-05-07T13:24:03.820Z,101392.05
2023-05-07T13:26:35.055Z,101389.15
2023-05-07T13:29:05.826Z,101396.19
2023-05-07T13:31:37.690Z,101394.13
2023-05-07T13:34:09.680Z,101389.67
2023-05-07T13:36:41.068Z,101395.66
2023-05-07T13:39:11.934Z,101399.43
2023-05-07T13:41:43.894Z,101381.60
2023-05-07T13:44:14.729Z,101394.11
2023-05-07T13:46:45.590Z,101386.05
2023-05-07T13:49:16.382Z,101381.56
2023-05-07T13:51:47.155Z,101383.44
2023-05-07T13:54:21.198Z,101395.58
2023-05-07T14:01:23.616Z,101385.81
2023-05-07T14:03:54.555Z,101389.08
2023-05-07T14:06:50.877Z,101386.84
2023-05-07T14:13:31.976Z,101391.31
2023-05-07T14:16:06.172Z,101390.48
2023-05-07T14:18:40.836Z,101390.13
2023-05-07T14:21:11.699Z,101391.84
2023-05-07T14:23:42.416Z,101404.67
2023-05-07T14:26:13.655Z,101407.59
2023-05-07T14:28:48.161Z,101395.94
2023-05-07T14:31:29.244Z,101401.42
2023-05-07T14:38:33.977Z,101398.17
2023-05-07T14:41:07.258Z,101400.56
2023-05-07T14:43:42.339Z,101398.00
2023-05-07T14:46:12.218Z,101400.58
2023-05-07T14:48:43.664Z,101399.88
2023-05-07T14:51:15.486Z,101406.20
2023-05-07T14:53:46.450Z,101403.80
2023-05-07T14:56:21.423Z,101403.80
2023-05-07T14:58:55.262Z,101400.04
2023-05-07T15:01:27.926Z,101406.54
2023-05-07T15:03:59.071Z,101415.30
2023-05-07T15:06:30.584Z,101405.00
2023-05-07T15:09:02.036Z,101420.91
2023-05-07T15:11:32.883Z,101404.46
2023-05-07T15:15:16.740Z,101408.20
2023-05-07T15:17:47.993Z,101405.14
2023-05-07T15:20:22.034Z,101400.00
2023-05-07T15:22:54.247Z,101400.70
2023-05-07T15:25:25.562Z,101399.15
2023-05-07T15:27:57.088Z,101406.20
2023-05-07T15:30:29.179Z,101408.95
2023-05-07T15:33:00.714Z,101403.63
2023-05-07T15:35:44.134Z,101393.52
2023-05-07T15:38:15.073Z,101403.80
2023-05-07T15:40:46.651Z,101412.02
2023-05-07T15:43:17.732Z,101403.64
2023-05-07T15:45:49.871Z,101407.91
2023-05-07T15:48:21.460Z,101417.66
2023-05-07T15:50:52.228Z,101411.34
2023-05-07T15:53:23.208Z,101412.89
2023-05-07T15:55:55.144Z,101403.27
2023-05-07T15:58:26.148Z,101406.36
2023-05-07T16:01:01.535Z,101409.97
2023-05-07T16:03:33.276Z,101408.78
2023-05-07T16:06:05.210Z,101405.70
2023-05-07T16:08:36.424Z,101408.77
2023-05-07T16:11:07.162Z,101405.52
2023-05-07T16:13:39.002Z,101407.41
2023-05-07T16:16:10.433Z,101407.40
2023-05-07T16:18:41.691Z,101402.79
2023-05-07T16:21:24.482Z,101400.20
2023-05-07T16:24:17.669Z,101401.05
2023-05-07T16:26:48.636Z,101405.52
2023-05-07T16:29:20.843Z,101400.03
2023-05-07T16:31:52.008Z,101402.44
2023-05-07T16:34:23.460Z,101403.46
2023-05-07T16:36:56.046Z,101403.46
2023-05-07T16:39:30.000Z,101406.89
2023-05-07T16:42:00.724Z,101407.74
2023-05-07T16:44:34.406Z,101409.27
2023-05-07T16:47:05.184Z,101405.34
2023-05-07T16:55:32.536Z,101410.29
2023-05-07T17:36:33.122Z,101425.34
2023-05-07T17:39:01.144Z,101435.43
2023-05-07T17:41:29.362Z,101440.86
2023-05-07T17:48:35.327Z,101444.65
2023-05-07T18:12:17.716Z,101468.52
2023-05-07T18:14:47.445Z,101476.66
2023-05-07T18:17:16.989Z,101478.83
2023-05-07T18:19:45.723Z,101475.86
2023-05-07T18:22:15.139Z,101478.54
2023-05-07T18:24:45.788Z,101484.13
2023-05-07T18:27:13.785Z,101487.14
2023-05-07T18:29:42.066Z,101491.00
2023-05-07T18:32:12.927Z,101493.84
2023-05-07T18:34:41.195Z,101493.91
2023-05-07T18:37:10.730Z,101499.30
2023-05-07T18:39:40.324Z,101503.29
2023-05-07T18:42:08.710Z,101504.89
2023-05-07T18:44:37.865Z,101511.80
2023-05-07T18:47:07.335Z,101511.00
2023-05-07T18:49:36.653Z,101515.73
2023-05-07T18:52:05.144Z,101516.17
2023-05-07T18:54:33.253Z,101517.98
2023-05-07T18:57:01.352Z,101520.27
2023-05-07T18:59:29.688Z,101526.33
2023-05-07T19:01:58.375Z,101531.36
2023-05-07T19:04:27.148Z,101533.68
2023-05-07T19:06:55.485Z,101533.96
2023-05-07T19:09:23.940Z,101539.18
2023-05-07T19:11:51.922Z,101536.20
2023-05-07T19:14:20.544Z,101544.34
2023-05-07T19:16:49.414Z,101544.46
2023-05-07T19:19:26.138Z,101546.44
2023-05-07T19:21:54.314Z,101547.73
2023-05-07T19:24:22.592Z,101550.61
2023-05-07T19:26:51.839Z,101549.21
2023-05-07T19:29:19.835Z,101550.89
2023-05-07T19:31:48.104Z,101556.64
2023-05-07T19:34:16.448Z,101561.14
2023-05-07T19:36:44.779Z,101562.46
2023-05-07T19:39:14.208Z,101566.88
2023-05-07T19:41:42.537Z,101571.28
2023-05-07T19:44:11.085Z,101573.98
2023-05-07T19:46:42.629Z,101576.86
2023-05-07T19:49:12.967Z,101579.05
2023-05-07T19:51:41.552Z,101579.55
2023-05-07T19:54:09.910Z,101581.70
2023-05-07T19:56:39.337Z,101583.34
2023-05-07T19:59:08.457Z,101583.29
2023-05-07T20:01:38.777Z,101585.09
2023-05-07T20:04:07.280Z,101589.98
2023-05-07T20:06:35.473Z,101589.92
2023-05-07T20:09:04.091Z,101594.98
2023-05-07T20:11:32.736Z,101595.92
2023-05-07T20:14:00.857Z,101600.96
2023-05-07T20:16:29.511Z,101603.80
2023-05-07T20:18:58.036Z,101604.43
2023-05-07T20:21:27.079Z,101607.08
2023-05-07T20:23:56.194Z,101602.93
2023-05-07T20:26:25.813Z,101604.59
2023-05-07T20:28:53.966Z,101606.08
2023-05-07T20:31:24.076Z,101610.34
2023-05-07T20:33:54.373Z,101612.33
2023-05-07T20:36:25.386Z,101616.88
2023-05-07T20:39:26.952Z,101614.64
2023-05-07T20:41:55.090Z,101615.45
2023-05-07T20:44:24.018Z,101617.45
2023-05-07T20:46:58.148Z,101621.99
2023-05-07T20:49:26.530Z,101620.44
2023-05-07T20:51:55.912Z,101622.63
2023-05-07T20:54:54.281Z,101627.52
2023-05-07T20:57:22.661Z,101628.67
2023-05-07T21:04:23.044Z,101632.47
2023-05-07T21:17:35.419Z,101641.28
2023-05-07T21:20:07.474Z,101649.23
2023-05-07T21:22:38.384Z,101653.40
2023-05-07T21:25:14.853Z,101653.32
2023-05-07T21:27:45.939Z,101656.92
2023-05-07T21:30:18.475Z,101661.09
2023-05-07T21:32:49.450Z,101658.73
2023-05-07T21:35:20.361Z,101664.54
2023-05-07T21:37:52.635Z,101668.02
2023-05-07T21:40:25.941Z,101671.33
2023-05-07T21:42:57.228Z,101674.45
2023-05-07T21:45:28.221Z,101679.27
2023-05-07T21:48:00.585Z,101679.30
2023-05-07T21:51:02.329Z,101679.15
2023-05-07T22:02:55.789Z,101693.21
2023-05-07T22:05:26.809Z,101689.14
2023-05-07T22:07:57.663Z,101690.97
2023-05-07T22:10:28.696Z,101690.04
2023-05-07T22:12:59.478Z,101691.66
2023-05-07T22:15:32.648Z,101692.61
2023-05-07T22:18:08.112Z,101692.84
2023-05-07T22:20:39.317Z,101694.08
2023-05-07T22:23:10.196Z,101694.93
2023-05-07T22:25:41.486Z,101692.94
2023-05-07T22:28:12.422Z,101696.39
2023-05-07T22:30:43.315Z,101693.37
2023-05-07T22:33:16.782Z,101692.25
2023-05-07T22:35:47.676Z,101693.49
2023-05-07T22:38:18.547Z,101694.44
2023-05-07T22:40:49.497Z,101692.80
2023-05-07T22:43:20.643Z,101697.66
2023-05-07T22:46:57.409Z,101696.34
2023-05-07T22:49:28.288Z,101701.73
2023-05-07T22:52:00.621Z,101701.49
2023-05-07T22:54:34.042Z,101701.75
2023-05-07T22:57:05.663Z,101699.29
2023-05-07T22:59:36.696Z,101696.99
2023-05-07T23:02:12.305Z,101696.27
2023-05-07T23:12:29.100Z,101698.11
2023-05-07T23:15:00.189Z,101700.28
2023-05-07T23:17:30.997Z,101702.14
2023-05-07T23:20:01.992Z,101702.11
2023-05-07T23:22:57.160Z,101703.80
2023-05-07T23:25:29.641Z,101707.20
2023-05-07T23:28:00.852Z,101703.08
2023-05-07T23:30:31.921Z,101698.30
2023-05-07T23:33:03.179Z,101697.26
2023-05-07T23:35:34.078Z,101694.31
2023-05-07T23:38:05.223Z,101695.65
2023-05-07T23:40:36.788Z,101691.73
2023-05-07T23:43:08.177Z,101697.13
2023-05-07T23:45:39.395Z,101696.52
2023-05-07T23:48:10.507Z,101695.98
2023-05-07T23:50:41.362Z,101692.02
2023-05-07T23:53:12.300Z,101691.80
2023-05-07T23:55:46.106Z,101691.58
2023-05-07T23:58:16.978Z,101690.16
